Time;durP1;ratioP1;P1;durP2;ratioP2;P2;SDS_P1;SDS_P2;PMS_P1;PMS_P2;Temp;Humidity;BMP_temperature;BMP_pressure;BME280_temperature;BME280_humidity;BME280_pressure;Samples;Min_cycle;Max_cycle;Signal;HPM_P1;HPM_P2
2021/12/26 00:00:27;;;;;;;7.85;3.38;;;;;;;-145.18;86.81;47881.41;5048140;28;20041;-69
2021/12/26 00:02:52;;;;;;;9.10;3.20;;;;;;;-145.18;87.59;47889.25;5048039;28;20033;-69
2021/12/26 00:05:19;;;;;;;7.70;2.57;;;;;;;-145.18;86.85;47838.44;5047225;28;20045;-69
2021/12/26 00:07:45;;;;;;;4.85;2.42;;;;;;;-145.18;87.11;47875.56;5048160;28;20086;-68
2021/12/26 00:10:13;;;;;;;3.60;1.73;;;;;;;-145.18;87.49;47861.88;5048329;28;20049;-69
2021/12/26 00:12:39;;;;;;;5.03;2.40;;;;;;;-145.18;87.38;47887.28;5047219;28;20423;-68
2021/12/26 00:15:06;;;;;;;4.37;1.93;;;;;;;-145.18;88.05;47861.88;5048021;28;20043;-69
2021/12/26 00:17:31;;;;;;;2.92;1.73;;;;;;;-145.18;88.85;47885.31;5047637;28;20116;-69
2021/12/26 00:19:57;;;;;;;3.77;2.00;;;;;;;-145.18;90.33;47875.56;5046960;28;20124;-68
2021/12/26 00:22:23;;;;;;;6.97;2.43;;;;;;;-145.18;92.10;47875.56;5048185;28;20052;-68
2021/12/26 00:24:48;;;;;;;4.37;2.20;;;;;;;-145.18;91.60;47863.84;5047755;28;20071;-68
2021/12/26 00:27:15;;;;;;;5.07;2.40;;;;;;;-145.18;92.62;47887.28;5047782;28;20087;-68
2021/12/26 00:29:40;;;;;;;5.07;2.08;;;;;;;-145.18;93.48;47877.50;5047447;28;20107;-68
2021/12/26 00:32:06;;;;;;;3.80;1.87;;;;;;;-145.18;93.45;47867.75;5047387;28;20542;-68
2021/12/26 00:34:33;;;;;;;5.50;1.90;;;;;;;-145.18;92.84;47883.38;5047151;28;20056;-68
2021/12/26 00:36:58;;;;;;;5.10;2.28;;;;;;;-145.18;93.57;47867.75;5047753;28;20469;-69
2021/12/26 00:39:24;;;;;;;5.90;2.53;;;;;;;-145.18;93.37;47863.84;5047917;28;20029;-68
2021/12/26 00:41:49;;;;;;;3.60;1.70;;;;;;;-145.18;93.57;47865.78;5047725;28;20128;-68
2021/12/26 00:44:15;;;;;;;9.37;2.20;;;;;;;-145.18;93.37;47906.81;5047179;28;20036;-69
2021/12/26 00:46:40;;;;;;;3.07;1.73;;;;;;;-145.18;94.10;47873.59;5047409;28;20140;-68
2021/12/26 00:49:06;;;;;;;3.13;1.50;;;;;;;-145.18;94.57;47877.50;5047303;28;20032;-68
2021/12/26 00:51:32;;;;;;;6.55;2.00;;;;;;;-145.18;92.90;47850.16;5047658;28;20056;-69
2021/12/26 00:53:57;;;;;;;7.00;2.20;;;;;;;-145.18;91.48;47867.75;5047894;28;20116;-68
2021/12/26 00:56:23;;;;;;;2.77;1.70;;;;;;;-145.18;92.64;47873.59;5047081;28;20060;-68
2021/12/26 00:58:49;;;;;;;5.77;2.00;;;;;;;-145.18;90.65;47865.78;5047164;28;20127;-68
2021/12/26 01:01:15;;;;;;;4.85;1.55;;;;;;;-145.18;91.60;47869.69;5047590;28;20406;-68
2021/12/26 01:03:41;;;;;;;4.93;1.97;;;;;;;-145.18;90.90;47857.97;5046780;28;20033;-68
2021/12/26 01:06:06;;;;;;;5.72;1.95;;;;;;;-145.18;90.40;47859.94;5047458;28;20313;-68
2021/12/26 01:08:37;;;;;;;5.87;2.50;;;;;;;-145.18;90.87;47865.78;5047433;28;20064;-68
2021/12/26 01:11:16;;;;;;;3.35;1.65;;;;;;;-145.18;91.17;47840.38;5047456;28;20091;-68
2021/12/26 01:13:44;;;;;;;3.97;1.17;;;;;;;-145.18;91.17;47875.56;5047035;28;20468;-68
2021/12/26 01:16:11;;;;;;;4.38;1.67;;;;;;;-145.18;89.55;47873.59;5046961;28;20040;-68
2021/12/26 01:18:42;;;;;;;2.60;1.25;;;;;;;-145.18;89.14;47865.78;5046801;28;20048;-69
2021/12/26 01:21:25;;;;;;;5.95;2.28;;;;;;;-145.18;88.58;47848.19;5047302;28;20120;-68
2021/12/26 01:23:58;;;;;;;14.85;2.15;;;;;;;-145.18;87.44;47830.63;5047019;28;20033;-69
2021/12/26 01:26:24;;;;;;;5.57;2.22;;;;;;;-145.18;87.17;47828.66;5047141;28;20029;-69
2021/12/26 01:28:50;;;;;;;4.32;1.92;;;;;;;-145.18;87.69;47830.63;5046506;28;20182;-69
2021/12/26 01:31:19;;;;;;;4.27;1.73;;;;;;;-145.18;87.14;47857.97;5049811;28;20037;-68
2021/12/26 01:33:46;;;;;;;4.90;2.05;;;;;;;-145.18;88.16;47848.19;5050951;28;20490;-68
2021/12/26 01:36:11;;;;;;;6.47;2.13;;;;;;;-145.18;86.10;47832.56;5051071;28;20045;-69
2021/12/26 01:38:37;;;;;;;2.13;1.30;;;;;;;-145.18;88.31;47846.25;5050234;28;20071;-69
2021/12/26 01:41:08;;;;;;;5.37;1.57;;;;;;;-145.18;86.71;47852.13;5051574;28;20048;-68
2021/12/26 01:43:35;;;;;;;4.60;1.50;;;;;;;-145.18;87.11;47828.66;5050423;28;20043;-69
2021/12/26 01:46:01;;;;;;;4.30;2.00;;;;;;;-145.18;85.81;47842.34;5030403;28;20044;-68
2021/12/26 01:48:27;;;;;;;3.87;1.90;;;;;;;-145.18;88.27;47846.25;5030310;28;20041;-68
2021/12/26 01:50:52;;;;;;;5.33;1.80;;;;;;;-145.18;87.77;47856.03;5030776;28;20037;-68
2021/12/26 01:53:20;;;;;;;5.67;1.50;;;;;;;-145.18;86.70;47857.97;5030262;28;20042;-69
2021/12/26 01:55:47;;;;;;;3.80;2.00;;;;;;;-145.18;88.18;47859.94;5030613;28;20531;-69
2021/12/26 01:58:15;;;;;;;6.13;2.08;;;;;;;-145.18;87.71;47844.28;5030861;28;20148;-69
2021/12/26 02:00:44;;;;;;;3.10;1.65;;;;;;;-145.18;86.75;47859.94;5030538;28;20116;-68
2021/12/26 02:03:10;;;;;;;6.97;2.17;;;;;;;-145.18;88.16;47867.75;5030123;28;20494;-69
2021/12/26 02:05:35;;;;;;;2.50;1.20;;;;;;;-145.18;87.68;47815.00;5030192;28;20043;-68
2021/12/26 02:08:02;;;;;;;2.80;1.33;;;;;;;-145.18;86.06;47857.97;5030400;28;20061;-68
2021/12/26 02:10:27;;;;;;;5.57;1.27;;;;;;;-145.18;86.88;47826.72;5030385;28;20107;-69
2021/12/26 02:12:53;;;;;;;4.47;2.20;;;;;;;-145.18;87.44;47813.03;5030258;28;20486;-69
2021/12/26 02:15:18;;;;;;;3.90;2.10;;;;;;;-145.18;87.09;47824.75;5029508;28;20045;-68
2021/12/26 02:17:44;;;;;;;4.43;1.77;;;;;;;-145.18;88.05;47820.84;5030354;28;20038;-68
2021/12/26 02:20:16;;;;;;;5.80;2.17;;;;;;;-145.18;86.67;47811.09;5030178;28;20430;-69
2021/12/26 02:22:46;;;;;;;6.72;2.00;;;;;;;-145.18;87.47;47846.25;5029981;28;20033;-69
2021/12/26 02:25:27;;;;;;;3.28;2.08;;;;;;;-145.18;85.72;47813.03;5030050;28;20061;-68
2021/12/26 02:27:52;;;;;;;5.15;1.90;;;;;;;-145.18;87.43;47844.28;5030345;28;20044;-69
2021/12/26 02:30:18;;;;;;;1.40;1.00;;;;;;;-145.18;87.15;47832.56;5029881;28;20042;-69
2021/12/26 02:32:46;;;;;;;4.83;1.43;;;;;;;-145.18;87.58;47826.72;5029772;28;20486;-69
2021/12/26 02:35:12;;;;;;;5.75;2.13;;;;;;;-145.18;87.19;47824.75;5029475;28;20065;-69
2021/12/26 02:37:37;;;;;;;4.07;2.17;;;;;;;-145.18;87.83;47830.63;5029777;28;20406;-69
2021/12/26 02:40:04;;;;;;;4.43;1.63;;;;;;;-145.18;86.99;47832.56;5029648;28;20041;-69
2021/12/26 02:42:30;;;;;;;5.50;2.25;;;;;;;-145.18;86.16;47861.88;5029222;28;20120;-69
2021/12/26 02:44:55;;;;;;;3.37;1.77;;;;;;;-145.18;86.89;47809.13;5029641;28;20140;-69
2021/12/26 02:47:44;;;;;;;12.10;2.97;;;;;;;-145.18;87.82;47848.19;5029376;28;20076;-69
2021/12/26 02:50:18;;;;;;;3.60;2.10;;;;;;;-145.18;87.47;47820.84;5029629;28;20044;-69
2021/12/26 02:52:45;;;;;;;5.72;1.65;;;;;;;-145.18;88.22;47840.38;5030185;28;20037;-69
2021/12/26 02:55:13;;;;;;;2.45;1.55;;;;;;;-145.18;87.88;47836.47;5029351;28;20056;-69
2021/12/26 02:57:39;;;;;;;2.08;1.25;;;;;;;-145.18;88.27;47848.19;5029283;28;20041;-69
2021/12/26 03:00:17;;;;;;;6.50;2.05;;;;;;;-145.18;88.45;47871.66;5029630;28;20030;-69
2021/12/26 03:02:44;;;;;;;4.13;2.10;;;;;;;-145.18;88.04;47842.34;5029270;28;20050;-69
2021/12/26 03:05:11;;;;;;;4.45;1.80;;;;;;;-145.18;88.92;47840.38;5029357;28;20398;-69
2021/12/26 03:07:36;;;;;;;6.32;2.10;;;;;;;-145.18;88.07;47838.44;5029271;28;20044;-69
2021/12/26 03:10:05;;;;;;;5.03;2.20;;;;;;;-145.18;88.91;47842.34;5027720;28;20124;-69
2021/12/26 03:12:33;;;;;;;5.97;2.10;;;;;;;-145.18;87.27;47822.81;5028838;28;20136;-69
2021/12/26 03:14:58;;;;;;;3.55;1.70;;;;;;;-145.18;89.70;47856.03;5028495;28;20041;-69
2021/12/26 03:17:24;;;;;;;5.50;2.37;;;;;;;-145.18;89.65;47820.84;5029333;28;20044;-69
2021/12/26 03:19:49;;;;;;;3.20;1.80;;;;;;;-145.18;90.98;47834.53;5028485;28;20544;-69
2021/12/26 03:22:15;;;;;;;4.63;2.00;;;;;;;-145.18;90.43;47863.84;5028773;28;20030;-69
2021/12/26 03:24:43;;;;;;;4.87;1.93;;;;;;;-145.18;91.60;47826.72;5028303;28;20034;-69
2021/12/26 03:27:09;;;;;;;4.35;2.40;;;;;;;-145.18;90.83;47828.66;5028914;28;20854;-69
2021/12/26 03:29:35;;;;;;;3.00;1.98;;;;;;;-145.18;90.67;47838.44;5028291;28;20041;-69
2021/12/26 03:32:01;;;;;;;3.95;1.92;;;;;;;-145.18;90.78;47816.94;5028831;28;20049;-69
2021/12/26 03:34:27;;;;;;;4.87;2.60;;;;;;;-145.18;91.68;47824.75;5028703;28;20041;-69
2021/12/26 03:36:53;;;;;;;3.47;2.20;;;;;;;-145.18;89.81;47816.94;5028573;28;20248;-68
2021/12/26 03:39:20;;;;;;;4.03;1.63;;;;;;;-145.18;91.73;47838.44;5027919;28;20065;-68
2021/12/26 03:41:45;;;;;;;4.35;2.35;;;;;;;-145.18;91.66;47842.34;5028475;28;20083;-68
2021/12/26 03:44:12;;;;;;;4.27;1.97;;;;;;;-145.18;91.27;47828.66;5028025;28;20053;-69
2021/12/26 03:46:37;;;;;;;3.40;1.95;;;;;;;-145.18;91.52;47844.28;5027721;28;20057;-69
2021/12/26 03:49:05;;;;;;;3.93;2.10;;;;;;;-145.18;91.71;47842.34;5028201;28;20076;-69
2021/12/26 03:51:32;;;;;;;4.60;1.95;;;;;;;-145.18;92.16;47824.75;5028519;28;20061;-69
2021/12/26 03:53:58;;;;;;;5.55;2.17;;;;;;;-145.18;91.52;47834.53;5028008;28;20049;-69
2021/12/26 03:56:23;;;;;;;5.93;1.80;;;;;;;-145.18;91.19;47840.38;5027927;28;20038;-69
2021/12/26 03:58:48;;;;;;;3.97;2.10;;;;;;;-145.18;92.10;47840.38;5027944;28;20124;-69
2021/12/26 04:01:14;;;;;;;4.83;1.90;;;;;;;-145.18;92.04;47822.81;5028176;28;20048;-69
2021/12/26 04:03:39;;;;;;;6.17;2.10;;;;;;;-145.18;93.57;47846.25;5027949;28;20116;-69
2021/12/26 04:06:06;;;;;;;5.07;2.37;;;;;;;-145.18;94.48;47848.19;5029085;28;20084;-69
2021/12/26 04:08:31;;;;;;;3.97;1.90;;;;;;;-145.18;94.51;47824.75;5027466;28;20052;-69
2021/12/26 04:10:57;;;;;;;9.77;3.00;;;;;;;-145.18;93.95;47854.06;5028050;28;20030;-69
2021/12/26 04:13:22;;;;;;;4.67;2.07;;;;;;;-145.18;94.86;47865.78;5027894;28;20441;-69
2021/12/26 04:15:48;;;;;;;7.90;2.90;;;;;;;-145.18;93.89;47844.28;5027901;28;20553;-69
2021/12/26 04:18:13;;;;;;;4.27;1.87;;;;;;;-145.18;95.45;47856.03;5027896;28;20498;-69
2021/12/26 04:20:39;;;;;;;4.77;2.40;;;;;;;-145.18;97.61;47840.38;5027689;28;20510;-68
2021/12/26 04:23:05;;;;;;;4.17;2.07;;;;;;;-145.18;98.92;47875.56;5027698;28;20049;-69
2021/12/26 04:25:30;;;;;;;4.67;2.23;;;;;;;-145.18;98.33;47848.19;5027222;28;20038;-68
2021/12/26 04:27:56;;;;;;;4.93;2.20;;;;;;;-145.18;99.92;47840.38;5027665;28;20034;-69
2021/12/26 04:30:23;;;;;;;6.73;2.70;;;;;;;-145.18;98.81;47854.06;5026834;28;20060;-68
2021/12/26 04:32:48;;;;;;;5.70;2.45;;;;;;;-145.18;99.35;47850.16;5028066;28;20407;-68
2021/12/26 04:35:15;;;;;;;6.80;2.40;;;;;;;-145.18;100.00;47840.38;5027622;28;20046;-68
2021/12/26 04:37:40;;;;;;;10.48;2.47;;;;;;;-145.18;100.00;47846.25;5027534;28;20033;-68
2021/12/26 04:40:09;;;;;;;5.07;2.60;;;;;;;-145.18;100.00;47832.56;5026275;28;20038;-68
2021/12/26 04:42:36;;;;;;;4.47;1.83;;;;;;;-145.18;100.00;47830.63;5027342;28;20037;-68
2021/12/26 04:45:03;;;;;;;4.80;2.47;;;;;;;-145.18;100.00;47867.75;5027122;28;20041;-68
2021/12/26 04:47:28;;;;;;;5.15;2.42;;;;;;;-145.18;100.00;47844.28;5027193;28;20045;-68
2021/12/26 04:49:54;;;;;;;5.63;2.90;;;;;;;-145.18;100.00;47869.69;5027070;28;20491;-68
2021/12/26 04:52:19;;;;;;;6.33;2.40;;;;;;;-145.18;100.00;47840.38;5028049;28;20099;-68
2021/12/26 04:54:45;;;;;;;5.30;2.63;;;;;;;-145.18;100.00;47863.84;5026874;28;20054;-68
2021/12/26 04:57:10;;;;;;;6.63;2.63;;;;;;;-145.18;100.00;47859.94;5027264;28;20041;-68
2021/12/26 04:59:35;;;;;;;6.20;2.27;;;;;;;-145.18;100.00;47871.66;5026792;28;20073;-68
2021/12/26 05:02:01;;;;;;;4.27;2.40;;;;;;;-145.18;100.00;47861.88;5025810;28;20069;-69
2021/12/26 05:04:26;;;;;;;4.27;2.40;;;;;;;-145.18;100.00;47887.28;5026393;28;20510;-68
2021/12/26 05:06:52;;;;;;;4.67;3.00;;;;;;;-145.18;100.00;47867.75;5031462;28;20054;-68
2021/12/26 05:09:18;;;;;;;4.87;2.63;;;;;;;-145.18;100.00;47850.16;5030980;28;20042;-68
2021/12/26 05:11:43;;;;;;;4.68;2.67;;;;;;;-145.18;100.00;47854.06;5031404;28;20041;-68
2021/12/26 05:14:09;;;;;;;5.97;3.00;;;;;;;-145.18;100.00;47865.78;5030989;28;20551;-68
2021/12/26 05:16:34;;;;;;;7.00;2.87;;;;;;;-145.18;100.00;47828.66;5031234;28;20394;-68
2021/12/26 05:18:59;;;;;;;4.50;2.37;;;;;;;-145.18;100.00;47873.59;5030949;28;20126;-68
2021/12/26 05:21:25;;;;;;;5.07;2.40;;;;;;;-145.18;100.00;47871.66;5031716;28;20045;-68
2021/12/26 05:23:50;;;;;;;6.43;3.17;;;;;;;-145.18;100.00;47846.25;5030669;28;20475;-68
2021/12/26 05:26:16;;;;;;;5.93;2.53;;;;;;;-145.18;100.00;47887.28;5031193;28;20048;-68
2021/12/26 05:28:41;;;;;;;7.80;2.90;;;;;;;-145.18;100.00;47856.03;5030725;28;20040;-68
2021/12/26 05:31:06;;;;;;;7.83;2.50;;;;;;;-145.18;100.00;47867.75;5030725;28;20120;-68
2021/12/26 05:33:32;;;;;;;5.83;2.70;;;;;;;-145.18;100.00;47879.47;5030518;28;20453;-68
2021/12/26 05:35:59;;;;;;;6.10;2.83;;;;;;;-145.18;100.00;47879.47;5031593;28;20494;-68
2021/12/26 05:38:26;;;;;;;6.97;3.15;;;;;;;-145.18;100.00;47859.94;5030347;28;20044;-68
2021/12/26 05:40:52;;;;;;;8.85;2.85;;;;;;;-145.18;100.00;47877.50;5030500;28;20045;-68
2021/12/26 05:43:17;;;;;;;4.63;2.73;;;;;;;-145.18;100.00;47859.94;5030527;28;20060;-68
2021/12/26 05:45:42;;;;;;;4.73;2.87;;;;;;;-145.18;100.00;47879.47;5029851;28;20148;-68
2021/12/26 05:48:08;;;;;;;4.97;2.80;;;;;;;-145.18;100.00;47877.50;5030630;28;20079;-68
2021/12/26 05:50:33;;;;;;;6.90;3.23;;;;;;;-145.18;100.00;47885.31;5030391;28;20148;-68
2021/12/26 05:52:59;;;;;;;8.67;2.97;;;;;;;-145.18;100.00;47891.19;5030789;28;20678;-68
2021/12/26 05:55:24;;;;;;;4.00;2.20;;;;;;;-145.18;100.00;47879.47;5028379;28;20092;-68
2021/12/26 05:57:50;;;;;;;5.23;2.73;;;;;;;-145.18;100.00;47883.38;5030482;28;20033;-68
2021/12/26 06:00:18;;;;;;;5.63;2.60;;;;;;;-145.18;100.00;47836.47;5029911;28;20490;-68
2021/12/26 06:02:43;;;;;;;8.90;2.95;;;;;;;-145.18;100.00;47889.25;5030248;28;20056;-68
2021/12/26 06:05:09;;;;;;;5.87;2.73;;;;;;;-145.18;100.00;47875.56;5029668;28;20041;-68
2021/12/26 06:07:36;;;;;;;8.80;2.73;;;;;;;-145.18;100.00;47848.19;5030819;28;20380;-69
2021/12/26 06:10:02;;;;;;;5.07;2.13;;;;;;;-145.18;100.00;47881.41;5029753;28;20103;-68
2021/12/26 06:12:28;;;;;;;5.50;2.90;;;;;;;-145.18;100.00;47877.50;5029796;28;20030;-69
2021/12/26 06:14:53;;;;;;;4.73;2.17;;;;;;;-145.18;100.00;47871.66;5029360;28;20129;-66
2021/12/26 06:17:18;;;;;;;3.97;2.00;;;;;;;-145.18;100.00;47863.84;5028311;28;20584;-67
2021/12/26 06:19:44;;;;;;;4.00;2.00;;;;;;;-145.18;100.00;47889.25;5029664;28;20045;-67
2021/12/26 06:22:09;;;;;;;5.80;2.00;;;;;;;-145.18;100.00;47875.56;5030404;28;20399;-67
2021/12/26 06:24:35;;;;;;;4.83;2.83;;;;;;;-145.18;100.00;47883.38;5029358;28;20437;-66
2021/12/26 06:27:00;;;;;;;4.33;2.53;;;;;;;-145.18;100.00;47897.06;5029979;28;20048;-66
2021/12/26 06:29:26;;;;;;;4.27;2.17;;;;;;;-145.18;100.00;47899.00;5029107;28;20075;-66
2021/12/26 06:31:51;;;;;;;4.80;2.23;;;;;;;-145.18;100.00;47883.38;5029590;28;20038;-67
2021/12/26 06:34:16;;;;;;;4.00;2.30;;;;;;;-145.18;100.00;47893.16;5029137;28;20155;-67
2021/12/26 06:36:42;;;;;;;7.30;2.67;;;;;;;-145.18;100.00;47887.28;5030090;28;20487;-67
2021/12/26 06:39:07;;;;;;;7.93;3.10;;;;;;;-145.18;100.00;47885.31;5031776;28;20506;-68
2021/12/26 06:41:33;;;;;;;5.57;2.40;;;;;;;-145.18;100.00;47871.66;5028911;28;20041;-69
2021/12/26 06:43:59;;;;;;;7.40;2.23;;;;;;;-145.18;100.00;47887.28;5028638;28;20037;-68
2021/12/26 06:46:25;;;;;;;9.17;2.90;;;;;;;-145.18;100.00;47900.97;5028747;28;20042;-69
2021/12/26 06:48:50;;;;;;;5.23;2.70;;;;;;;-145.18;100.00;47875.56;5028987;28;20490;-69
2021/12/26 06:51:15;;;;;;;4.60;2.60;;;;;;;-145.18;100.00;47889.25;5027980;28;20068;-69
2021/12/26 06:53:41;;;;;;;6.30;2.47;;;;;;;-145.18;100.00;47904.88;5028943;28;20048;-67
2021/12/26 06:56:06;;;;;;;4.53;2.40;;;;;;;-145.18;100.00;47899.00;5028668;28;20045;-66
2021/12/26 06:58:32;;;;;;;7.03;2.97;;;;;;;-145.18;100.00;47918.53;5028541;28;20044;-67
2021/12/26 07:00:57;;;;;;;4.23;2.00;;;;;;;-145.18;100.00;47891.19;5028758;28;20037;-67
2021/12/26 07:03:22;;;;;;;4.60;2.70;;;;;;;-145.18;100.00;47887.28;5028487;28;20498;-66
2021/12/26 07:05:48;;;;;;;5.27;2.83;;;;;;;-145.18;100.00;47895.09;5029211;28;20042;-67
2021/12/26 07:08:13;;;;;;;9.73;3.30;;;;;;;-145.18;100.00;47906.81;5028971;28;20120;-68
2021/12/26 07:10:39;;;;;;;5.60;2.83;;;;;;;-145.18;100.00;47883.38;5029322;28;20075;-68
2021/12/26 07:13:04;;;;;;;3.60;2.40;;;;;;;-145.18;100.00;47859.94;5028481;28;20045;-67
2021/12/26 07:15:30;;;;;;;5.20;2.70;;;;;;;-145.18;100.00;47885.31;5027862;28;20045;-68
2021/12/26 07:17:56;;;;;;;6.67;2.43;;;;;;;-145.18;100.00;47887.28;5028362;28;20048;-69
2021/12/26 07:20:21;;;;;;;8.20;2.90;;;;;;;-145.18;100.00;47897.06;5027943;28;20505;-69
2021/12/26 07:22:47;;;;;;;5.33;2.80;;;;;;;-145.18;100.00;47895.09;5028114;28;20046;-68
2021/12/26 07:25:14;;;;;;;5.00;2.80;;;;;;;-145.18;100.00;47885.31;5028030;28;20046;-69
2021/12/26 07:27:40;;;;;;;4.85;2.67;;;;;;;-145.18;100.00;47895.09;5027798;28;20057;-69
2021/12/26 07:47:51;;;;;;;8.53;3.10;;;;;;;-145.18;100.00;47857.97;4981152;28;20400;-68
2021/12/26 07:50:16;;;;;;;5.67;2.87;;;;;;;-145.18;100.00;47869.69;4976125;28;20272;-66
2021/12/26 07:52:43;;;;;;;6.17;3.10;;;;;;;-145.18;100.00;47906.81;4978007;28;20042;-66
2021/12/26 07:55:13;;;;;;;7.30;3.22;;;;;;;-145.18;100.00;47844.28;4976028;28;20039;-68
2021/12/26 07:57:48;;;;;;;7.30;2.88;;;;;;;-145.18;100.00;47879.47;4975904;28;20038;-68
2021/12/26 08:00:16;;;;;;;5.13;2.60;;;;;;;-145.18;100.00;47875.56;4969370;28;20039;-69
2021/12/26 08:02:41;;;;;;;7.13;3.00;;;;;;;-145.18;100.00;47871.66;4979312;28;20104;-68
2021/12/26 08:05:07;;;;;;;7.27;3.07;;;;;;;-145.18;100.00;47863.84;4977085;28;20055;-66
2021/12/26 08:07:34;;;;;;;5.85;3.10;;;;;;;-145.18;100.00;47891.19;4980618;28;20125;-68
2021/12/26 08:09:59;;;;;;;5.78;3.20;;;;;;;-145.18;100.00;47887.28;4980144;28;20612;-68
2021/12/26 08:12:24;;;;;;;8.37;3.43;;;;;;;-145.18;100.00;47895.09;4964435;28;20129;-68
2021/12/26 08:14:50;;;;;;;7.40;3.27;;;;;;;-145.18;100.00;47889.25;4966702;28;20406;-68
2021/12/26 08:17:15;;;;;;;6.33;3.20;;;;;;;-145.18;100.00;47883.38;4964507;28;20130;-68
2021/12/26 08:19:41;;;;;;;6.57;3.07;;;;;;;-145.18;100.00;47863.84;4972983;28;20046;-68
2021/12/26 08:22:06;;;;;;;7.30;3.37;;;;;;;-145.18;100.00;47883.38;4973709;28;20051;-68
2021/12/26 08:24:32;;;;;;;7.33;3.40;;;;;;;-145.18;100.00;47885.31;4980973;28;20043;-68
2021/12/26 08:26:57;;;;;;;7.10;3.67;;;;;;;-145.18;100.00;47869.69;4980656;28;20043;-68
2021/12/26 08:29:23;;;;;;;6.33;3.60;;;;;;;-145.18;100.00;47865.78;4980409;28;20558;-68
2021/12/26 08:31:54;;;;;;;6.40;3.40;;;;;;;-145.18;100.00;47863.84;4980584;28;20042;-68
2021/12/26 08:34:22;;;;;;;9.10;3.33;;;;;;;-145.18;100.00;47861.88;4980456;28;20042;-68
2021/12/26 08:36:49;;;;;;;7.15;3.88;;;;;;;-145.18;100.00;47846.25;4980089;28;20469;-68
2021/12/26 08:39:14;;;;;;;7.95;3.25;;;;;;;-145.18;100.00;47859.94;4973515;28;20100;-68
2021/12/26 08:41:40;;;;;;;6.37;3.60;;;;;;;-145.18;100.00;47846.25;4964709;28;20050;-68
2021/12/26 08:44:05;;;;;;;6.20;3.17;;;;;;;-145.18;100.00;47846.25;4967546;28;20034;-68
2021/12/26 08:46:31;;;;;;;6.13;3.37;;;;;;;-145.18;100.00;47867.75;4967383;28;20046;-68
2021/12/26 08:48:56;;;;;;;5.30;2.93;;;;;;;-145.18;100.00;47836.47;4967223;28;20043;-68
2021/12/26 08:51:21;;;;;;;6.67;3.10;;;;;;;-145.18;100.00;47850.16;4967306;28;20046;-68
2021/12/26 08:53:47;;;;;;;6.03;3.17;;;;;;;-145.18;100.00;47840.38;4967640;28;20039;-68
2021/12/26 08:56:12;;;;;;;7.90;3.73;;;;;;;-145.18;100.00;47869.69;4967875;28;20419;-68
2021/12/26 08:58:37;;;;;;;5.50;3.23;;;;;;;-145.18;100.00;47820.84;4964998;28;20050;-68
2021/12/26 09:01:03;;;;;;;7.57;3.20;;;;;;;-145.18;100.00;47822.81;4966826;28;20448;-68
2021/12/26 09:03:28;;;;;;;5.03;2.30;;;;;;;-145.18;100.00;47824.75;4967639;28;20038;-68
2021/12/26 09:05:54;;;;;;;6.40;2.97;;;;;;;-145.18;100.00;47832.56;4966513;28;20082;-68
2021/12/26 09:08:20;;;;;;;6.37;3.00;;;;;;;-145.18;100.00;47836.47;4963462;28;20742;-69
2021/12/26 09:10:46;;;;;;;6.53;3.25;;;;;;;-145.18;100.00;47805.22;4967248;28;20045;-69
2021/12/26 09:13:11;;;;;;;7.70;3.47;;;;;;;-145.18;100.00;47840.38;4966834;28;20414;-68
2021/12/26 09:15:37;;;;;;;9.13;2.83;;;;;;;-145.18;100.00;47818.91;4960339;28;20054;-69
2021/12/26 09:18:03;;;;;;;10.97;5.97;;;;;;;-145.18;100.00;47824.75;4947897;28;20507;-68
2021/12/26 09:20:29;;;;;;;6.30;3.40;;;;;;;-145.18;100.00;47816.94;4948153;28;20565;-68
2021/12/26 09:22:54;;;;;;;9.67;3.27;;;;;;;-145.18;100.00;47807.16;4947936;28;20412;-68
2021/12/26 09:25:20;;;;;;;9.30;3.57;;;;;;;-145.18;100.00;47815.00;4948137;28;20047;-68
2021/12/26 09:27:46;;;;;;;11.20;3.37;;;;;;;-145.18;100.00;47828.66;4948574;28;20042;-69
2021/12/26 09:33:11;;;;;;;7.20;3.25;;;;;;;-145.18;100.00;47795.44;4563548;23;20089;-68
2021/12/26 09:35:36;;;;;;;10.93;3.97;;;;;;;-145.18;100.00;47773.97;4937235;28;20047;-69
2021/12/26 09:38:03;;;;;;;5.07;2.67;;;;;;;-145.18;100.00;47789.59;4930330;23;20048;-67
2021/12/26 09:40:29;;;;;;;7.07;3.47;;;;;;;-145.18;100.00;47801.31;4919404;28;20051;-67
2021/12/26 09:42:54;;;;;;;5.70;2.67;;;;;;;-145.18;100.00;47809.13;4926461;28;20411;-67
2021/12/26 09:45:20;;;;;;;8.70;3.30;;;;;;;-145.18;100.00;47809.13;4920916;28;20047;-68
2021/12/26 09:47:50;;;;;;;5.88;3.17;;;;;;;-145.18;100.00;47789.59;4922113;28;20036;-68
2021/12/26 09:50:17;;;;;;;4.75;2.40;;;;;;;-145.18;100.00;47760.28;4926806;28;20503;-69
2021/12/26 09:52:44;;;;;;;6.05;2.92;;;;;;;-145.18;100.00;47785.69;4925021;28;20043;-68
2021/12/26 09:55:10;;;;;;;7.00;3.63;;;;;;;-145.18;100.00;47793.50;4928237;28;20071;-68
2021/12/26 09:57:36;;;;;;;8.10;4.38;;;;;;;-145.18;100.00;47781.78;4926054;28;20047;-68
2021/12/26 10:00:18;;;;;;;13.27;4.40;;;;;;;-145.18;100.00;47770.03;4927818;28;20055;-68
2021/12/26 10:02:43;;;;;;;7.32;3.95;;;;;;;-145.18;100.00;47781.78;4927943;28;20040;-69
2021/12/26 10:05:09;;;;;;;3.63;1.97;;;;;;;-145.18;100.00;47787.63;4928069;28;20055;-69
2021/12/26 10:07:35;;;;;;;5.90;2.93;;;;;;;-145.18;100.00;47791.53;4926958;28;20043;-69
2021/12/26 10:10:05;;;;;;;5.50;2.67;;;;;;;-145.18;100.00;47801.31;4917252;28;20504;-70
2021/12/26 10:12:39;;;;;;;7.53;3.63;;;;;;;-145.18;100.00;47797.41;4953045;28;20086;-70
2021/12/26 10:15:05;;;;;;;10.07;4.90;;;;;;;-145.18;100.00;47768.09;4927715;28;20547;-70
2021/12/26 10:17:31;;;;;;;8.88;4.07;;;;;;;-145.18;100.00;47791.53;4933851;28;20496;-69
2021/12/26 10:20:16;;;;;;;7.10;3.42;;;;;;;-145.18;100.00;47770.03;4902412;28;20044;-70
2021/12/26 10:22:42;;;;;;;7.90;3.47;;;;;;;-145.18;100.00;47762.22;4889954;28;20048;-70
2021/12/26 10:25:17;;;;;;;7.30;2.87;;;;;;;-145.18;100.00;47760.28;4956266;28;20046;-70
2021/12/26 10:27:45;;;;;;;7.78;3.03;;;;;;;-145.18;100.00;47750.50;5007925;28;20057;-70
2021/12/26 10:30:22;;;;;;;7.32;4.05;;;;;;;-145.18;100.00;47779.81;5007791;28;20060;-70
2021/12/26 10:32:47;;;;;;;8.77;3.92;;;;;;;-145.18;100.00;47791.53;5008054;28;20073;-69
2021/12/26 10:35:16;;;;;;;8.30;3.73;;;;;;;-145.18;100.00;47770.03;5007257;28;20038;-70
2021/12/26 10:37:41;;;;;;;9.43;4.38;;;;;;;-145.18;100.00;47746.59;5007199;28;20414;-70
2021/12/26 10:40:11;;;;;;;6.17;3.07;;;;;;;-145.18;100.00;47779.81;5007848;28;20125;-71
2021/12/26 10:42:44;;;;;;;5.95;3.10;;;;;;;-145.18;100.00;47752.47;5007200;28;20042;-70
2021/12/26 10:45:11;;;;;;;8.75;3.70;;;;;;;-145.18;100.00;47766.13;5007102;28;20030;-71
2021/12/26 10:47:39;;;;;;;8.93;4.55;;;;;;;-145.18;100.00;47760.28;4992754;28;20036;-71
2021/12/26 10:50:15;;;;;;;13.05;5.25;;;;;;;-145.18;100.00;47752.47;4936049;28;20106;-71
2021/12/26 10:52:42;;;;;;;;;;;;;;;-145.18;100.00;47732.94;4992729;28;20044;-72
2021/12/26 10:55:14;;;;;;;7.25;3.85;;;;;;;-145.18;100.00;47770.03;4935580;28;19919;-71
2021/12/26 10:57:41;;;;;;;8.75;4.70;;;;;;;-145.18;100.00;47734.88;4908557;28;20635;-72
2021/12/26 11:00:14;;;;;;;10.10;4.88;;;;;;;-145.18;100.00;47750.50;4908271;28;20048;-72
2021/12/26 11:03:02;;;;;;;11.20;4.97;;;;;;;-145.18;100.00;47738.78;4998556;28;20042;-72
2021/12/26 11:05:45;;;;;;;6.90;3.65;;;;;;;-145.18;100.00;47727.06;5007597;28;20402;-73
2021/12/26 11:08:16;;;;;;;10.25;5.38;;;;;;;-145.18;100.00;47752.47;5007395;28;20498;-73
2021/12/26 11:10:44;;;;;;;8.57;4.68;;;;;;;-145.18;100.00;47732.94;5007845;28;20046;-73
2021/12/26 11:13:19;;;;;;;10.85;4.78;;;;;;;-145.18;100.00;47760.28;5007331;28;20038;-73
2021/12/26 11:15:46;;;;;;;9.75;5.20;;;;;;;-145.18;100.00;47752.47;5007491;28;20042;-74
2021/12/26 11:18:14;;;;;;;11.63;5.25;;;;;;;-145.18;100.00;47758.31;5007059;28;20050;-73
2021/12/26 11:20:44;;;;;;;15.57;5.40;;;;;;;-145.18;100.00;47758.31;4964829;28;20527;-74
2021/12/26 11:23:15;;;;;;;9.95;4.95;;;;;;;-145.18;100.00;47750.50;4927295;28;20553;-74
2021/12/26 11:25:50;;;;;;;10.85;5.90;;;;;;;-145.18;100.00;47738.78;4974063;28;20034;-74
2021/12/26 11:28:17;;;;;;;7.78;4.20;;;;;;;-145.18;100.00;47727.06;5006907;28;20064;-73
2021/12/26 11:30:44;;;;;;;12.68;5.50;;;;;;;-145.18;100.00;47750.50;5004771;28;20498;-75